Time;durP1;ratioP1;P1;durP2;ratioP2;P2;SDS_P1;SDS_P2;PMS_P1;PMS_P2;Temp;Humidity;BMP_temperature;BMP_pressure;BME280_temperature;BME280_humidity;BME280_pressure;Samples;Min_cycle;Max_cycle;Signal;HPM_P1;HPM_P2
2022/02/12 00:00:39;;;;;;;11.53;6.53;;;3.80;60.10;;;;;;5112816;28;20081;-71
2022/02/12 00:03:05;;;;;;;10.20;5.27;;;3.90;60.10;;;;;;5121575;28;20062;-71
2022/02/12 00:05:31;;;;;;;6.57;4.57;;;3.80;59.90;;;;;;5133011;27;20019;-71
2022/02/12 00:07:58;;;;;;;7.37;3.77;;;3.80;59.80;;;;;;5149251;27;20088;-72
2022/02/12 00:10:28;;;;;;;8.00;3.80;;;3.80;59.70;;;;;;5133399;27;20073;-72
2022/02/12 00:12:54;;;;;;;7.00;3.60;;;3.70;60.50;;;;;;5132909;27;20031;-71
2022/02/12 00:15:21;;;;;;;6.93;4.03;;;3.70;60.10;;;;;;5149232;27;20079;-71
2022/02/12 00:17:47;;;;;;;4.97;3.37;;;3.70;60.20;;;;;;5131715;28;20134;-71
2022/02/12 00:20:13;;;;;;;5.63;3.43;;;3.70;60.10;;;;;;5122599;28;20103;-72
2022/02/12 00:22:40;;;;;;;4.80;3.30;;;3.70;59.90;;;;;;5112715;28;20042;-71
2022/02/12 00:25:06;;;;;;;6.13;3.07;;;3.80;59.90;;;;;;5111803;28;20039;-71
2022/02/12 00:27:32;;;;;;;5.63;3.00;;;3.70;59.70;;;;;;5115547;28;20031;-71
2022/02/12 00:29:58;;;;;;;7.23;2.90;;;3.70;59.60;;;;;;5115480;28;20463;-71
2022/02/12 00:32:24;;;;;;;6.10;3.27;;;3.60;59.80;;;;;;5116693;28;20031;-71
2022/02/12 00:34:50;;;;;;;6.27;3.20;;;3.60;59.80;;;;;;5114862;28;20027;-71
2022/02/12 00:37:16;;;;;;;5.77;3.17;;;3.60;60.00;;;;;;5117041;27;20042;-71
2022/02/12 00:39:41;;;;;;;5.33;3.60;;;3.60;60.00;;;;;;5116603;28;20024;-72
2022/02/12 00:42:08;;;;;;;5.97;3.80;;;3.60;60.00;;;;;;5115938;28;20459;-72
2022/02/12 00:44:34;;;;;;;7.80;3.50;;;3.60;60.10;;;;;;5116607;28;20098;-71
2022/02/12 00:47:00;;;;;;;4.87;2.70;;;3.60;60.10;;;;;;5114886;28;20035;-71
2022/02/12 00:49:26;;;;;;;5.20;2.60;;;3.50;60.00;;;;;;5132248;27;20119;-72
2022/02/12 00:51:52;;;;;;;5.23;2.53;;;3.50;60.00;;;;;;5136629;27;20027;-71
2022/02/12 00:54:19;;;;;;;4.77;2.57;;;3.30;60.00;;;;;;5126147;27;20405;-71
2022/02/12 00:56:45;;;;;;;4.83;2.37;;;3.30;60.30;;;;;;5115724;28;20467;-72
2022/02/12 00:59:11;;;;;;;6.50;2.10;;;3.30;60.30;;;;;;5114779;28;20114;-71
2022/02/12 01:01:37;;;;;;;3.87;2.87;;;3.40;60.30;;;;;;5131376;27;20067;-72
2022/02/12 01:04:04;;;;;;;4.57;2.33;;;3.40;60.00;;;;;;5116159;28;20055;-71
2022/02/12 01:06:31;;;;;;;3.63;2.20;;;3.40;60.10;;;;;;5116009;28;20077;-71
2022/02/12 01:08:57;;;;;;;11.00;4.00;;;3.30;60.10;;;;;;5143952;27;20034;-71
2022/02/12 01:11:23;;;;;;;5.23;3.90;;;3.30;60.30;;;;;;5135755;27;20633;-71
2022/02/12 01:13:49;;;;;;;6.80;4.50;;;3.30;60.30;;;;;;5136431;27;20637;-72
2022/02/12 01:16:15;;;;;;;9.37;4.53;;;3.20;60.60;;;;;;5135887;27;20106;-72
2022/02/12 01:18:41;;;;;;;5.83;3.13;;;3.20;60.80;;;;;;5135527;27;20038;-72
2022/02/12 01:21:07;;;;;;;6.27;3.07;;;3.20;61.00;;;;;;5135492;27;20034;-71
2022/02/12 01:23:33;;;;;;;4.23;2.57;;;3.20;60.90;;;;;;5150802;27;20065;-71
2022/02/12 01:25:58;;;;;;;3.43;2.63;;;3.20;60.80;;;;;;5135400;27;20103;-72
2022/02/12 01:28:25;;;;;;;6.57;2.30;;;3.10;60.80;;;;;;5151579;27;20068;-71
2022/02/12 01:30:50;;;;;;;5.03;2.40;;;3.10;60.70;;;;;;5135613;27;20696;-71
2022/02/12 01:33:16;;;;;;;5.63;1.90;;;3.10;60.70;;;;;;5136298;27;20089;-72
2022/02/12 01:35:42;;;;;;;4.20;2.07;;;3.10;60.60;;;;;;5134294;27;20039;-73
2022/02/12 01:38:08;;;;;;;3.90;1.63;;;3.10;60.60;;;;;;5112520;28;20035;-71
2022/02/12 01:40:34;;;;;;;3.53;1.90;;;3.00;60.40;;;;;;5114086;28;20047;-72
2022/02/12 01:43:02;;;;;;;6.67;1.80;;;3.00;60.40;;;;;;5115335;28;20024;-71
2022/02/12 01:45:28;;;;;;;4.40;1.93;;;3.00;60.50;;;;;;5115039;27;20024;-71
2022/02/12 01:47:53;;;;;;;4.97;1.87;;;3.00;60.90;;;;;;5114133;28;20134;-71
2022/02/12 01:50:19;;;;;;;7.10;2.13;;;3.00;60.40;;;;;;5114968;28;20110;-71
2022/02/12 01:52:45;;;;;;;5.83;2.10;;;2.90;60.30;;;;;;5114635;28;20061;-72
2022/02/12 01:55:12;;;;;;;4.37;1.93;;;2.90;60.10;;;;;;5133068;27;20131;-72
2022/02/12 01:57:38;;;;;;;4.33;1.90;;;2.90;60.30;;;;;;5134136;27;20041;-71
2022/02/12 02:00:09;;;;;;;5.97;2.63;;;2.90;60.20;;;;;;5135049;27;20029;-71
2022/02/12 02:02:37;;;;;;;4.53;2.20;;;2.80;60.20;;;;;;5122204;27;20027;-71
2022/02/12 02:05:13;;;;;;;4.33;2.20;;;2.70;60.40;;;;;;5114467;27;20020;-71
2022/02/12 02:07:41;;;;;;;3.90;2.17;;;2.70;60.40;;;;;;5116461;27;20115;-71
2022/02/12 02:10:08;;;;;;;5.97;2.27;;;2.70;60.40;;;;;;5135496;27;20061;-71
2022/02/12 02:12:34;;;;;;;6.60;2.70;;;2.70;60.20;;;;;;5134974;27;20031;-71
2022/02/12 02:15:01;;;;;;;4.43;1.97;;;2.70;60.00;;;;;;5151301;27;20051;-71
2022/02/12 02:17:27;;;;;;;4.43;1.87;;;2.70;60.00;;;;;;5135188;27;20060;-71
2022/02/12 02:19:53;;;;;;;2.80;1.57;;;2.60;60.00;;;;;;5134312;27;20131;-72
2022/02/12 02:22:25;;;;;;;5.33;2.20;;;2.60;60.00;;;;;;5113037;28;20023;-71
2022/02/12 02:24:51;;;;;;;4.75;1.67;;;2.60;60.00;;;;;;5113255;28;20019;-71
2022/02/12 02:27:19;;;;;;;4.73;2.40;;;2.60;60.00;;;;;;5112697;28;20147;-71
2022/02/12 02:29:45;;;;;;;5.23;1.83;;;2.60;60.10;;;;;;5130166;27;20016;-71
2022/02/12 02:32:12;;;;;;;3.67;1.63;;;2.60;60.00;;;;;;5130130;27;20088;-71
2022/02/12 02:34:50;;;;;;;6.17;1.73;;;2.60;59.90;;;;;;5112372;28;20157;-71
2022/02/12 02:37:17;;;;;;;2.90;1.30;;;2.60;59.90;;;;;;5133169;27;20012;-71
2022/02/12 02:39:42;;;;;;;4.70;1.43;;;2.50;60.00;;;;;;5138626;27;20535;-72
2022/02/12 02:42:08;;;;;;;2.23;1.20;;;2.50;59.80;;;;;;5113866;28;20153;-71
2022/02/12 02:44:34;;;;;;;4.63;2.40;;;2.50;59.60;;;;;;5114064;28;20103;-71
2022/02/12 02:47:32;;;;;;;5.27;2.03;;;2.50;59.50;;;;;;5113877;28;20054;-71
2022/02/12 02:49:45;;;;;;;7.13;3.33;;;2.50;59.80;;;;;;5113821;28;20085;-71
2022/02/12 02:57:39;;;;;;;8.43;4.20;;;2.30;60.40;;;;;;5134488;27;20038;-71
2022/02/12 03:00:05;;;;;;;5.60;3.33;;;2.40;60.40;;;;;;5134297;27;20451;-71
2022/02/12 03:02:31;;;;;;;3.63;2.50;;;2.30;60.40;;;;;;5133443;27;20034;-73
2022/02/12 03:04:56;;;;;;;5.13;2.87;;;2.40;60.50;;;;;;5134416;27;20019;-72
2022/02/12 03:07:22;;;;;;;4.87;3.00;;;2.40;60.50;;;;;;5134220;27;20637;-71
2022/02/12 03:09:48;;;;;;;4.53;2.70;;;2.30;60.60;;;;;;5132975;27;20023;-71
2022/02/12 03:12:13;;;;;;;8.90;3.27;;;2.20;60.60;;;;;;5134328;27;20456;-71
2022/02/12 03:14:39;;;;;;;5.43;2.60;;;2.20;60.70;;;;;;5122515;27;20023;-71
2022/02/12 03:17:05;;;;;;;5.43;1.70;;;2.20;60.80;;;;;;5117802;27;20032;-71
2022/02/12 03:19:30;;;;;;;4.47;2.07;;;2.20;60.80;;;;;;5112239;28;20059;-71
2022/02/12 03:21:56;;;;;;;4.10;1.70;;;2.20;60.70;;;;;;5128286;27;20033;-71
2022/02/12 03:24:22;;;;;;;4.27;2.00;;;2.20;60.60;;;;;;5112029;28;20455;-71
2022/02/12 03:26:47;;;;;;;5.37;2.60;;;2.20;60.30;;;;;;5119909;27;20046;-71
2022/02/12 03:29:13;;;;;;;5.83;2.17;;;2.20;60.20;;;;;;5133927;27;20067;-71
2022/02/12 03:31:39;;;;;;;6.23;2.70;;;2.10;60.30;;;;;;5149307;27;20062;-71
2022/02/12 03:34:04;;;;;;;7.10;2.97;;;2.10;60.30;;;;;;5133958;27;20088;-72
2022/02/12 03:36:31;;;;;;;4.27;2.67;;;2.10;60.30;;;;;;5133637;27;20072;-72
2022/02/12 03:38:56;;;;;;;6.77;2.80;;;2.20;60.70;;;;;;5149152;27;20083;-71
2022/02/12 03:41:24;;;;;;;8.70;2.40;;;2.10;60.00;;;;;;5132352;27;20118;-72
2022/02/12 03:43:49;;;;;;;4.03;1.93;;;2.10;60.00;;;;;;5133213;27;20024;-71
2022/02/12 03:46:15;;;;;;;6.70;2.57;;;2.00;60.00;;;;;;5133449;27;20043;-71
2022/02/12 03:48:41;;;;;;;3.70;2.10;;;2.00;60.00;;;;;;5133563;27;20027;-71
2022/02/12 03:51:06;;;;;;;3.33;2.17;;;1.90;60.10;;;;;;5133098;27;20032;-71
2022/02/12 03:53:32;;;;;;;3.27;1.73;;;1.90;60.00;;;;;;5133365;27;20183;-71
2022/02/12 03:55:58;;;;;;;4.60;1.70;;;1.90;59.90;;;;;;5149212;27;20027;-71
2022/02/12 03:58:23;;;;;;;4.93;1.83;;;1.90;59.90;;;;;;5148976;27;20043;-72
2022/02/12 04:00:50;;;;;;;5.47;1.93;;;1.90;59.90;;;;;;5126049;27;20372;-71
2022/02/12 04:03:17;;;;;;;3.30;2.00;;;1.90;59.70;;;;;;5112776;28;20032;-71
2022/02/12 04:05:46;;;;;;;5.63;2.30;;;1.90;59.70;;;;;;5128180;28;20019;-71
2022/02/12 04:08:13;;;;;;;4.33;2.50;;;1.90;59.70;;;;;;5125565;28;20046;-72
2022/02/12 04:10:40;;;;;;;7.73;3.20;;;1.90;59.50;;;;;;5132024;28;20031;-71
2022/02/12 04:13:05;;;;;;;4.17;3.10;;;1.80;59.80;;;;;;5132821;27;20031;-71
2022/02/12 04:15:31;;;;;;;7.93;4.27;;;1.80;59.90;;;;;;5149153;27;20031;-71
2022/02/12 04:17:57;;;;;;;5.20;3.17;;;1.80;60.10;;;;;;5124924;27;20457;-71
2022/02/12 04:20:24;;;;;;;7.80;2.70;;;1.80;60.20;;;;;;5110952;28;20114;-71
2022/02/12 04:22:50;;;;;;;4.73;2.43;;;1.90;60.20;;;;;;5112852;28;20499;-71
2022/02/12 04:25:18;;;;;;;3.43;2.37;;;1.80;60.00;;;;;;5111282;28;20028;-71
2022/02/12 04:27:44;;;;;;;4.17;2.13;;;1.80;60.00;;;;;;5128015;28;20360;-71
2022/02/12 04:30:12;;;;;;;4.37;2.17;;;1.70;60.10;;;;;;5111390;28;20059;-71
2022/02/12 04:32:38;;;;;;;5.13;2.70;;;1.70;60.20;;;;;;5112759;28;20027;-71
2022/02/12 04:35:04;;;;;;;6.17;2.37;;;1.70;60.00;;;;;;5128550;27;20028;-72
2022/02/12 04:37:31;;;;;;;4.60;2.40;;;1.70;59.80;;;;;;5115077;28;20050;-71
2022/02/12 04:40:00;;;;;;;5.60;2.00;;;1.70;59.60;;;;;;5132809;27;20044;-72
2022/02/12 04:42:26;;;;;;;5.03;2.20;;;1.70;59.60;;;;;;5148971;27;20257;-72
2022/02/12 04:44:53;;;;;;;8.07;2.20;;;1.70;59.70;;;;;;5133162;27;20025;-72
2022/02/12 04:47:20;;;;;;;3.37;2.00;;;1.60;59.90;;;;;;5148423;27;20071;-71
2022/02/12 04:49:47;;;;;;;6.87;2.13;;;1.70;60.00;;;;;;5132924;27;20080;-71
2022/02/12 04:52:15;;;;;;;3.77;2.10;;;1.70;60.00;;;;;;5138174;27;20027;-72
2022/02/12 04:54:41;;;;;;;3.17;1.80;;;1.80;60.00;;;;;;5112045;28;20031;-71
2022/02/12 04:57:07;;;;;;;4.20;2.70;;;1.80;60.20;;;;;;5112365;28;20019;-71
2022/02/12 04:59:33;;;;;;;6.63;2.90;;;1.80;60.00;;;;;;5112393;28;20040;-71
2022/02/12 05:01:59;;;;;;;8.70;3.60;;;1.80;60.00;;;;;;5111969;28;20031;-71
2022/02/12 05:04:25;;;;;;;9.47;4.30;;;1.70;59.80;;;;;;5112206;28;20056;-71
2022/02/12 05:06:51;;;;;;;8.50;3.60;;;1.60;59.70;;;;;;5112370;28;20068;-71
2022/02/12 05:09:17;;;;;;;9.30;3.63;;;1.60;59.80;;;;;;5128504;27;20388;-71
2022/02/12 05:11:48;;;;;;;6.83;3.97;;;1.60;59.60;;;;;;5112238;28;20035;-71
2022/02/12 05:14:15;;;;;;;10.07;3.47;;;1.50;59.40;;;;;;5130754;27;20023;-71
2022/02/12 05:16:41;;;;;;;8.07;4.33;;;1.50;59.40;;;;;;5134704;27;20034;-70
2022/02/12 05:19:07;;;;;;;8.43;5.00;;;1.50;59.40;;;;;;5136336;27;20019;-71
2022/02/12 05:21:33;;;;;;;10.07;6.07;;;1.50;59.50;;;;;;5136211;27;20502;-71
2022/02/12 05:23:59;;;;;;;13.20;6.97;;;1.40;59.50;;;;;;5135898;27;20023;-72
2022/02/12 05:26:27;;;;;;;12.33;6.77;;;1.40;59.90;;;;;;5124067;27;20051;-71
2022/02/12 05:28:53;;;;;;;11.87;4.97;;;1.40;59.90;;;;;;5114321;28;20131;-71
2022/02/12 05:31:19;;;;;;;6.73;4.43;;;1.40;59.80;;;;;;5115128;28;20051;-71
2022/02/12 05:33:44;;;;;;;7.10;4.60;;;1.40;59.70;;;;;;5115539;28;20055;-71
2022/02/12 05:36:12;;;;;;;10.87;4.80;;;1.40;59.60;;;;;;5115338;28;20027;-71
2022/02/12 05:38:39;;;;;;;6.03;3.93;;;1.40;59.60;;;;;;5126949;27;20031;-72
2022/02/12 05:41:09;;;;;;;7.57;4.33;;;1.40;59.80;;;;;;5135985;27;20021;-71
2022/02/12 05:43:36;;;;;;;8.30;4.00;;;1.40;59.60;;;;;;5150488;27;20058;-71
2022/02/12 05:46:03;;;;;;;9.27;3.60;;;1.50;59.60;;;;;;5132678;27;20050;-71
2022/02/12 05:48:29;;;;;;;7.53;4.37;;;1.50;59.40;;;;;;5122552;27;20061;-72
2022/02/12 05:50:54;;;;;;;15.87;5.00;;;1.40;59.00;;;;;;5151315;27;20050;-71
2022/02/12 05:53:21;;;;;;;8.87;4.40;;;1.30;59.10;;;;;;5135793;27;20027;-71
2022/02/12 05:55:47;;;;;;;11.93;5.03;;;1.30;59.20;;;;;;5135762;27;20027;-71
2022/02/12 05:58:12;;;;;;;11.53;4.13;;;1.30;59.00;;;;;;5132809;27;20035;-72
2022/02/12 06:00:38;;;;;;;8.43;5.30;;;1.30;59.00;;;;;;5118553;27;20023;-71
2022/02/12 06:03:04;;;;;;;13.33;5.57;;;1.30;58.90;;;;;;5135571;27;20019;-70
2022/02/12 06:05:30;;;;;;;10.80;5.67;;;1.20;59.20;;;;;;5150926;27;20024;-71
2022/02/12 06:07:56;;;;;;;10.00;5.13;;;1.20;59.30;;;;;;5149735;27;20027;-71
2022/02/12 06:10:21;;;;;;;7.73;4.40;;;1.20;59.40;;;;;;5135471;27;20475;-71
2022/02/12 06:12:48;;;;;;;9.83;5.60;;;1.20;59.50;;;;;;5151033;27;20028;-73
2022/02/12 06:15:13;;;;;;;12.00;6.90;;;1.10;59.50;;;;;;5135378;27;20060;-72
2022/02/12 06:17:40;;;;;;;9.30;5.30;;;1.10;59.70;;;;;;5121298;27;20382;-71
2022/02/12 06:20:07;;;;;;;12.93;6.00;;;1.10;59.60;;;;;;5134581;27;20038;-71
2022/02/12 06:22:33;;;;;;;8.63;6.20;;;1.10;59.80;;;;;;5135275;27;20023;-71
2022/02/12 06:24:59;;;;;;;16.40;8.37;;;1.10;59.80;;;;;;5134649;27;20314;-71
2022/02/12 06:27:25;;;;;;;17.03;9.53;;;1.10;59.70;;;;;;5134759;27;20318;-71
2022/02/12 06:29:51;;;;;;;19.80;8.53;;;1.00;59.60;;;;;;5133852;27;20022;-71
2022/02/12 06:32:17;;;;;;;18.50;9.30;;;1.00;59.50;;;;;;5135089;27;20329;-70
2022/02/12 06:34:42;;;;;;;14.07;8.27;;;1.00;59.70;;;;;;5133911;27;20718;-70
2022/02/12 06:37:09;;;;;;;22.37;10.97;;;1.00;59.50;;;;;;5134686;27;20030;-71
2022/02/12 06:39:35;;;;;;;42.50;17.40;;;1.00;59.60;;;;;;5133436;27;20072;-71
2022/02/12 06:42:01;;;;;;;28.03;12.03;;;0.90;59.70;;;;;;5134570;27;20760;-71
2022/02/12 06:44:27;;;;;;;22.97;9.67;;;0.90;59.90;;;;;;5134884;27;20027;-71
2022/02/12 06:46:53;;;;;;;26.80;11.43;;;0.90;59.40;;;;;;5150209;27;20273;-71
2022/02/12 06:49:19;;;;;;;23.17;12.33;;;1.00;59.30;;;;;;5134711;27;20314;-71
2022/02/12 06:51:44;;;;;;;27.57;12.83;;;1.00;59.10;;;;;;5118599;27;20032;-71
2022/02/12 06:54:10;;;;;;;21.90;11.67;;;1.00;59.10;;;;;;5113536;28;20126;-71
2022/02/12 06:56:36;;;;;;;18.83;9.87;;;1.00;59.00;;;;;;5129917;27;20418;-70
2022/02/12 06:59:02;;;;;;;16.90;8.30;;;1.00;58.90;;;;;;5141614;27;20031;-71
2022/02/12 07:01:28;;;;;;;14.43;8.00;;;0.80;58.70;;;;;;5149844;27;20024;-70
2022/02/12 07:03:54;;;;;;;13.93;8.03;;;0.80;59.30;;;;;;5150335;27;20050;-72
2022/02/12 07:06:20;;;;;;;12.83;6.53;;;0.90;59.20;;;;;;5150145;27;20027;-71
2022/02/12 07:08:46;;;;;;;7.03;4.13;;;0.90;59.10;;;;;;5134384;27;20295;-69
2022/02/12 07:11:12;;;;;;;8.47;4.20;;;1.00;59.00;;;;;;5113675;28;20533;-72
2022/02/12 07:13:37;;;;;;;5.77;3.80;;;1.00;58.80;;;;;;5112255;28;20448;-69
2022/02/12 07:16:04;;;;;;;8.97;4.80;;;1.00;58.80;;;;;;5112541;28;20102;-69
2022/02/12 07:18:29;;;;;;;9.87;4.50;;;1.00;58.60;;;;;;5128717;27;20028;-70
2022/02/12 07:20:55;;;;;;;12.67;4.00;;;1.00;58.50;;;;;;5112823;28;20269;-70
2022/02/12 07:23:21;;;;;;;8.00;3.80;;;1.00;58.40;;;;;;5113440;27;20020;-71
2022/02/12 07:25:47;;;;;;;7.77;5.10;;;1.10;58.40;;;;;;5124852;27;20029;-70
2022/02/12 07:28:12;;;;;;;12.17;5.60;;;1.10;58.30;;;;;;5132531;27;20162;-70
2022/02/12 07:30:39;;;;;;;6.67;4.40;;;1.00;58.20;;;;;;5132093;27;20113;-70
2022/02/12 07:33:04;;;;;;;7.83;4.50;;;1.00;58.10;;;;;;5133794;27;20030;-70
2022/02/12 07:35:30;;;;;;;8.77;4.77;;;1.10;58.40;;;;;;5131802;27;20265;-70
2022/02/12 07:37:56;;;;;;;8.93;4.50;;;1.10;58.20;;;;;;5132986;27;20076;-70
2022/02/12 07:40:21;;;;;;;11.90;5.43;;;1.10;58.20;;;;;;5132434;27;20106;-70
2022/02/12 07:42:47;;;;;;;11.10;6.17;;;1.10;58.20;;;;;;5133199;27;20027;-70
2022/02/12 07:45:16;;;;;;;16.50;8.63;;;1.10;58.10;;;;;;5149189;27;20029;-70
2022/02/12 07:47:42;;;;;;;15.27;8.03;;;1.10;58.30;;;;;;5133562;27;20287;-70
2022/02/12 07:50:10;;;;;;;12.70;6.33;;;1.20;58.30;;;;;;5149330;27;20265;-70
2022/02/12 07:52:36;;;;;;;10.87;6.73;;;1.20;58.20;;;;;;5148891;27;20027;-71
2022/02/12 07:55:03;;;;;;;15.63;6.87;;;1.20;58.30;;;;;;5149408;27;20099;-71
2022/02/12 07:57:29;;;;;;;16.53;8.53;;;1.20;58.20;;;;;;5132925;27;20284;-70
2022/02/12 07:59:54;;;;;;;11.33;7.47;;;1.10;58.10;;;;;;5130741;28;20265;-70
2022/02/12 08:02:20;;;;;;;15.37;7.70;;;1.20;58.00;;;;;;5149275;27;20041;-71
2022/02/12 08:04:46;;;;;;;13.83;8.13;;;1.20;58.80;;;;;;5133038;28;20031;-71
2022/02/12 08:07:29;;;;;;;18.33;8.70;;;1.10;58.20;;;;;;5133355;28;20027;-70
2022/02/12 08:10:00;;;;;;;11.70;6.07;;;1.10;58.10;;;;;;5133312;27;20099;-71
2022/02/12 08:12:27;;;;;;;13.17;7.50;;;1.10;58.10;;;;;;5148869;27;20187;-71
2022/02/12 08:14:55;;;;;;;12.53;6.73;;;1.10;58.00;;;;;;5149359;27;20115;-71
2022/02/12 08:17:24;;;;;;;9.73;5.87;;;1.10;57.80;;;;;;5113709;27;20062;-70
2022/02/12 08:19:51;;;;;;;10.73;5.83;;;1.10;57.80;;;;;;5110873;28;20304;-70
2022/02/12 08:22:18;;;;;;;17.00;9.13;;;1.10;58.10;;;;;;5112847;28;20242;-70
2022/02/12 08:24:45;;;;;;;13.63;8.33;;;1.10;58.10;;;;;;5112581;28;20023;-71
2022/02/12 08:27:11;;;;;;;10.87;6.47;;;1.20;58.10;;;;;;5112260;28;20250;-70
2022/02/12 08:29:38;;;;;;;16.10;6.87;;;1.20;58.10;;;;;;5122096;28;20030;-71
2022/02/12 08:32:04;;;;;;;14.73;7.63;;;1.20;58.00;;;;;;5132422;27;20609;-70
2022/02/12 08:34:30;;;;;;;20.87;9.47;;;1.20;58.00;;;;;;5112111;28;20288;-70
2022/02/12 08:36:57;;;;;;;37.30;17.00;;;1.40;58.50;;;;;;5112623;28;20043;-70
2022/02/12 08:39:24;;;;;;;39.87;15.23;;;1.40;57.90;;;;;;5112652;28;20019;-72
2022/02/12 08:41:50;;;;;;;15.20;6.93;;;1.50;58.00;;;;;;5112212;28;20051;-71
2022/02/12 08:44:17;;;;;;;10.60;5.87;;;1.70;57.90;;;;;;5128169;28;20122;-71
2022/02/12 08:46:43;;;;;;;9.27;4.60;;;2.30;57.00;;;;;;5112157;28;20035;-72
2022/02/12 08:49:10;;;;;;;9.40;4.33;;;3.60;54.90;;;;;;5133374;27;20024;-72
2022/02/12 08:51:37;;;;;;;10.30;4.20;;;6.50;50.70;;;;;;5137101;27;20054;-72
2022/02/12 08:54:07;;;;;;;6.38;3.95;;;9.30;47.70;;;;;;5136515;27;20379;-71
2022/02/12 08:56:34;;;;;;;4.45;3.00;;;10.40;47.00;;;;;;5152850;27;20020;-70
2022/02/12 08:59:00;;;;;;;7.13;3.65;;;10.90;47.70;;;;;;5124840;27;20036;-70
2022/02/12 09:01:26;;;;;;;6.43;4.50;;;11.10;47.20;;;;;;5131564;27;20126;-70
2022/02/12 09:03:52;;;;;;;8.13;4.13;;;11.10;47.20;;;;;;5116118;28;20027;-70
2022/02/12 09:06:18;;;;;;;12.13;4.55;;;11.00;47.40;;;;;;5116516;27;20502;-70
2022/02/12 09:08:43;;;;;;;6.70;4.63;;;10.80;47.70;;;;;;5115681;28;20364;-70
2022/02/12 09:11:09;;;;;;;9.63;5.70;;;10.30;47.10;;;;;;5131700;27;20023;-70
2022/02/12 09:13:35;;;;;;;9.13;5.68;;;9.80;46.70;;;;;;5115925;28;20031;-70
2022/02/12 09:16:00;;;;;;;9.05;5.40;;;9.20;45.90;;;;;;5113357;28;20076;-70
2022/02/12 09:18:26;;;;;;;14.82;5.40;;;8.90;45.70;;;;;;5115299;28;20019;-72
2022/02/12 09:20:52;;;;;;;8.50;4.13;;;8.50;44.90;;;;;;5115090;28;20022;-71
2022/02/12 09:23:18;;;;;;;8.93;5.03;;;8.10;44.60;;;;;;5115634;27;20893;-71
2022/02/12 09:25:43;;;;;;;6.40;3.03;;;7.80;44.50;;;;;;5136440;27;20042;-71
2022/02/12 09:28:09;;;;;;;7.00;3.70;;;7.50;44.20;;;;;;5152143;27;20390;-71
2022/02/12 09:30:35;;;;;;;6.37;3.60;;;7.40;43.80;;;;;;5135658;27;20023;-71
2022/02/12 09:33:00;;;;;;;6.43;3.20;;;7.20;43.80;;;;;;5151895;27;20421;-71
2022/02/12 09:35:26;;;;;;;11.03;4.07;;;7.20;43.90;;;;;;5151691;27;20407;-71
2022/02/12 09:37:52;;;;;;;5.67;2.93;;;7.20;43.70;;;;;;5135136;27;20072;-70
2022/02/12 09:40:18;;;;;;;6.10;3.20;;;7.20;43.60;;;;;;5132768;27;20020;-71
2022/02/12 09:42:47;;;;;;;6.85;3.53;;;7.20;43.80;;;;;;5114138;28;20019;-71
2022/02/12 09:45:13;;;;;;;9.88;3.70;;;7.50;44.10;;;;;;5113544;28;20093;-71
2022/02/12 09:47:49;;;;;;;9.32;3.67;;;7.80;44.20;;;;;;5115098;28;20110;-72
2022/02/12 09:50:16;;;;;;;6.18;3.78;;;8.00;43.70;;;;;;5114774;28;20016;-71
2022/02/12 09:52:53;;;;;;;8.43;3.50;;;8.10;43.90;;;;;;5115249;28;20125;-71
2022/02/12 09:55:20;;;;;;;5.13;3.10;;;8.20;42.80;;;;;;5115136;28;20028;-71
2022/02/12 09:57:46;;;;;;;9.47;3.30;;;8.10;42.00;;;;;;5116332;27;20117;-72
2022/02/12 10:00:14;;;;;;;4.37;2.90;;;8.00;41.80;;;;;;5134910;27;20128;-71
2022/02/12 10:02:40;;;;;;;6.00;3.07;;;8.10;41.60;;;;;;5135617;27;20019;-71
2022/02/12 10:05:26;;;;;;;8.03;3.60;;;8.30;41.60;;;;;;5133689;27;20035;-71
2022/02/12 10:08:15;;;;;;;7.40;3.30;;;8.50;41.10;;;;;;5120203;27;20038;-72
2022/02/12 10:10:42;;;;;;;4.80;2.30;;;8.60;41.00;;;;;;5135587;27;20019;-72
2022/02/12 10:13:09;;;;;;;5.70;1.87;;;8.70;40.90;;;;;;5134116;27;20023;-72
2022/02/12 10:15:35;;;;;;;4.70;2.37;;;8.70;40.10;;;;;;5123727;27;20110;-71
2022/02/12 10:18:01;;;;;;;4.50;1.70;;;8.60;39.60;;;;;;5119218;27;20115;-72
2022/02/12 10:20:33;;;;;;;6.43;2.53;;;8.60;39.50;;;;;;5114168;28;20368;-71
2022/02/12 10:23:03;;;;;;;6.47;2.00;;;8.80;39.30;;;;;;5114608;28;20026;-71
2022/02/12 10:25:30;;;;;;;5.17;2.30;;;9.00;38.90;;;;;;5136357;27;20018;-71
2022/02/12 10:27:57;;;;;;;7.97;1.97;;;9.10;38.60;;;;;;5145922;27;20033;-73
2022/02/12 10:30:29;;;;;;;7.23;2.20;;;9.20;38.20;;;;;;5119674;27;20427;-72
2022/02/12 10:33:02;;;;;;;3.72;1.67;;;9.20;37.50;;;;;;5115760;27;20047;-71
2022/02/12 10:35:28;;;;;;;;;;;9.20;37.50;;;;;;5113560;28;20379;-71
2022/02/12 10:38:07;;;;;;;4.60;1.83;;;9.10;37.60;;;;;;5112747;28;19950;-72
2022/02/12 10:40:34;;;;;;;9.10;2.23;;;9.10;37.40;;;;;;5124848;27;20019;-71
2022/02/12 10:43:01;;;;;;;3.23;1.97;;;9.00;37.40;;;;;;5133248;27;20046;-72
2022/02/12 10:45:29;;;;;;;3.47;1.90;;;8.80;37.20;;;;;;5133060;27;20483;-71
2022/02/12 10:47:57;;;;;;;6.33;2.30;;;8.90;37.30;;;;;;5134169;27;20046;-72
2022/02/12 10:50:26;;;;;;;6.57;2.43;;;8.80;37.00;;;;;;5150211;27;20023;-72
2022/02/12 10:52:58;;;;;;;6.90;1.97;;;8.90;36.90;;;;;;5149479;27;20031;-72
2022/02/12 10:55:34;;;;;;;3.20;1.77;;;8.90;36.80;;;;;;5116348;27;20024;-72
2022/02/12 10:58:09;;;;;;;5.47;2.00;;;9.10;36.50;;;;;;5112389;28;20032;-71
2022/02/12 11:00:37;;;;;;;2.47;1.43;;;9.10;36.30;;;;;;5112942;28;20492;-71
2022/02/12 11:03:12;;;;;;;3.70;1.30;;;9.00;35.80;;;;;;5113653;28;20019;-72
2022/02/12 11:05:41;;;;;;;7.97;1.43;;;8.90;35.90;;;;;;5118786;27;20102;-71
2022/02/12 11:08:07;;;;;;;4.27;1.53;;;9.10;35.80;;;;;;5133685;27;20363;-72
2022/02/12 11:10:38;;;;;;;9.40;2.27;;;9.20;35.50;;;;;;5133432;27;20019;-72
2022/02/12 11:13:06;;;;;;;4.00;1.50;;;9.10;35.10;;;;;;5128410;27;20949;-71
2022/02/12 11:15:33;;;;;;;6.77;1.80;;;9.20;35.20;;;;;;5122076;27;20027;-71
2022/02/12 11:18:00;;;;;;;2.60;1.17;;;9.40;35.30;;;;;;5113013;28;20104;-71
2022/02/12 11:20:28;;;;;;;3.83;1.43;;;9.40;34.90;;;;;;5112004;28;20020;-71
2022/02/12 11:23:18;;;;;;;2.33;1.20;;;9.40;34.60;;;;;;5111765;27;20027;-72
2022/02/12 11:25:45;;;;;;;10.33;1.43;;;9.30;34.10;;;;;;5128720;27;20051;-72
2022/02/12 11:28:12;;;;;;;7.30;1.50;;;9.30;34.50;;;;;;5132858;27;20076;-71
2022/02/12 11:30:42;;;;;;;6.57;1.40;;;9.40;34.60;;;;;;5149407;27;20405;-72
2022/02/12 11:33:08;;;;;;;2.27;1.50;;;9.50;34.40;;;;;;5143766;27;20495;-71
2022/02/12 11:35:34;;;;;;;4.60;1.70;;;9.20;34.30;;;;;;5123434;27;20122;-72
2022/02/12 11:38:00;;;;;;;3.23;1.53;;;9.10;34.60;;;;;;5132996;27;20523;-72
2022/02/12 11:40:28;;;;;;;5.87;1.60;;;9.10;34.70;;;;;;5121784;27;20034;-72
2022/02/12 11:43:10;;;;;;;3.63;1.23;;;9.20;34.70;;;;;;5113050;27;20051;-72
2022/02/12 11:45:43;;;;;;;3.90;1.98;;;9.20;34.20;;;;;;5118970;28;20027;-72
2022/02/12 11:48:25;;;;;;;3.47;1.38;;;9.10;34.30;;;;;;5133727;27;20502;-71
2022/02/12 11:50:56;;;;;;;9.50;1.63;;;9.20;34.30;;;;;;5133478;27;20468;-72
2022/02/12 11:53:45;;;;;;;4.47;1.50;;;9.30;35.10;;;;;;5133225;27;20030;-71
2022/02/12 11:56:35;;;;;;;10.07;1.80;;;9.30;34.20;;;;;;5147615;27;20121;-71
2022/02/12 11:59:02;;;;;;;5.23;1.70;;;9.40;34.20;;;;;;5145920;27;20027;-71
2022/02/12 12:01:28;;;;;;;15.57;2.67;;;9.50;34.70;;;;;;5132174;28;20205;-72
2022/02/12 12:04:09;;;;;;;5.40;1.77;;;9.60;34.90;;;;;;5133237;27;20098;-72
2022/02/12 12:06:37;;;;;;;2.40;1.67;;;9.60;34.20;;;;;;5132078;28;20380;-72
2022/02/12 12:09:04;;;;;;;5.17;1.53;;;9.60;34.70;;;;;;5133481;27;20041;-71
2022/02/12 12:11:30;;;;;;;6.23;1.50;;;9.70;34.40;;;;;;5126321;27;20024;-72
2022/02/12 12:13:58;;;;;;;3.67;1.43;;;9.70;34.40;;;;;;5118453;28;20043;-72
2022/02/12 12:16:32;;;;;;;3.07;1.37;;;9.70;34.30;;;;;;5133208;27;20110;-72
2022/02/12 12:19:00;;;;;;;4.43;1.40;;;9.80;34.50;;;;;;5148761;27;20126;-71
2022/02/12 12:21:26;;;;;;;6.23;1.57;;;9.80;34.00;;;;;;5120396;27;20441;-71
2022/02/12 12:23:57;;;;;;;7.20;1.73;;;9.70;33.90;;;;;;5130242;27;20031;-72
2022/02/12 12:26:36;;;;;;;8.97;1.70;;;9.70;33.80;;;;;;5136454;27;20031;-71
2022/02/12 12:32:00;;;;;;;2.83;1.53;;;9.60;33.80;;;;;;5121907;27;20120;-71
2022/02/12 12:34:26;;;;;;;10.03;2.97;;;9.50;34.00;;;;;;5126943;27;20043;-71
2022/02/12 12:36:56;;;;;;;2.73;1.70;;;9.50;34.20;;;;;;5116550;27;20472;-71
2022/02/12 12:39:33;;;;;;;6.87;1.77;;;9.50;33.90;;;;;;5116067;28;20023;-71
2022/02/12 12:42:00;;;;;;;2.97;1.70;;;9.50;33.70;;;;;;5116541;28;20023;-71
2022/02/12 12:44:27;;;;;;;12.10;1.53;;;9.30;33.40;;;;;;5127134;27;20031;-71
2022/02/12 12:46:55;;;;;;;6.93;1.53;;;9.20;33.20;;;;;;5152232;27;20047;-71
2022/02/12 12:49:30;;;;;;;4.60;1.47;;;9.20;33.20;;;;;;5116845;27;20053;-72
2022/02/12 12:51:57;;;;;;;6.43;1.47;;;9.20;33.30;;;;;;5130389;27;20035;-71
2022/02/12 12:54:35;;;;;;;3.17;1.63;;;9.30;33.50;;;;;;5135198;27;20118;-71
2022/02/12 12:57:03;;;;;;;8.40;1.80;;;9.40;33.40;;;;;;5136918;27;20512;-71
2022/02/12 12:59:29;;;;;;;3.97;1.80;;;9.60;33.80;;;;;;5128985;27;20030;-72
2022/02/12 13:02:01;;;;;;;4.77;2.10;;;9.60;33.60;;;;;;5115499;28;20034;-71
2022/02/12 13:04:37;;;;;;;4.90;2.10;;;9.70;33.60;;;;;;5119489;27;20019;-71